Time;durP1;ratioP1;P1;durP2;ratioP2;P2;SDS_P1;SDS_P2;PMS_P1;PMS_P2;Temp;Humidity;BMP_temperature;BMP_pressure;BME280_temperature;BME280_humidity;BME280_pressure;Samples;Min_cycle;Max_cycle;Signal;HPM_P1;HPM_P2
2022/06/01 05:40:21;;;;;;;;;;;;;;;;;;;;;
2022/06/01 05:43:24;;;;;;;6.70;6.05;;;10.40;94.30;;;;;;6246703;23;20070;-80
2022/06/01 05:46:00;;;;;;;11.77;7.05;;;10.40;94.60;;;;;;6244853;23;20058;-73
2022/06/01 05:48:29;;;;;;;9.70;6.72;;;10.60;95.30;;;;;;6244979;23;20443;-82
2022/06/01 05:50:54;;;;;;;7.97;6.55;;;10.70;94.70;;;;;;6244781;23;20022;-72
2022/06/01 05:53:20;;;;;;;7.83;5.57;;;10.80;94.70;;;;;;6218954;23;20043;-72
2022/06/01 05:55:46;;;;;;;7.03;5.70;;;11.00;94.20;;;;;;6220111;23;20024;-73
2022/06/01 05:58:24;;;;;;;7.55;5.75;;;11.30;93.90;;;;;;6220217;23;20312;-72
2022/06/01 06:00:52;;;;;;;6.88;6.18;;;11.70;93.20;;;;;;6245388;23;20351;-71
2022/06/01 06:03:19;;;;;;;7.38;5.70;;;12.00;93.00;;;;;;6243443;23;20439;-73
2022/06/01 06:08:31;;;;;;;8.80;5.40;;;12.50;92.80;;;;;;6244667;23;20016;-72
2022/06/01 06:11:00;;;;;;;7.50;5.68;;;12.60;92.70;;;;;;6220508;23;20308;-73
2022/06/01 06:13:25;;;;;;;8.10;5.50;;;12.50;90.50;;;;;;6220224;23;20070;-71
2022/06/01 06:15:51;;;;;;;6.07;4.70;;;12.50;91.80;;;;;;6220139;23;20369;-73
2022/06/01 06:18:17;;;;;;;5.25;4.38;;;12.60;91.90;;;;;;6245097;23;20023;-72
2022/06/01 06:20:44;;;;;;;5.80;4.10;;;12.50;90.70;;;;;;6270530;22;20020;-72
2022/06/01 06:23:12;;;;;;;4.95;3.88;;;12.50;89.70;;;;;;6245005;23;20028;-73
2022/06/01 06:25:41;;;;;;;7.13;3.58;;;12.40;90.80;;;;;;6245176;23;20081;-72
2022/06/01 06:28:07;;;;;;;9.68;3.78;;;12.30;89.30;;;;;;6219743;23;20435;-73
2022/06/01 06:30:34;;;;;;;7.03;3.67;;;12.30;90.10;;;;;;6245165;23;20021;-72
2022/06/01 06:33:00;;;;;;;6.60;4.32;;;12.30;90.70;;;;;;6219567;23;20427;-73
2022/06/01 06:35:25;;;;;;;7.25;4.05;;;12.40;90.40;;;;;;6219548;23;20050;-73
2022/06/01 06:37:51;;;;;;;15.70;4.60;;;12.30;90.30;;;;;;6245058;23;20016;-75
2022/06/01 06:40:17;;;;;;;14.18;4.93;;;12.30;90.30;;;;;;6246461;23;20020;-72
2022/06/01 06:42:43;;;;;;;7.32;4.53;;;12.30;90.20;;;;;;6219716;23;20493;-72
2022/06/01 06:45:09;;;;;;;7.68;3.95;;;12.40;90.10;;;;;;6219433;23;20019;-71
2022/06/01 06:57:57;;;;;;;8.63;3.92;;;13.30;88.70;;;;;;6042799;23;19913;-78
2022/06/01 09:26:49;;;;;;;;;;;;;;;;;;;;;
2022/06/01 09:30:49;;;;;;;;;;;;;;;;;;;;;
2022/06/01 13:58:18;;;;;;;;;;;;;;;;;;;;;
2022/06/01 14:29:56;;;;;;;3.95;2.03;;;17.10;65.90;;;;;;6218795;22;20073;-75
2022/06/01 14:36:45;;;;;;;4.93;2.75;;;17.20;66.20;;;;;;6277059;22;20058;-76
2022/06/01 14:52:30;;;;;;;;;;;;;;;;;;;;;
2022/06/01 14:55:21;;;;;;;4.00;3.05;;;16.90;67.70;;;;;;6115351;23;20020;-77
2022/06/01 14:57:47;;;;;;;4.45;2.67;;;17.00;68.30;;;;;;6124998;23;20010;-76
2022/06/01 15:12:09;;;;;;;6.05;2.42;;;16.40;67.10;;;;;;6036723;23;20449;-76
2022/06/01 15:27:17;;;;;;;6.40;3.40;;;16.20;69.20;;;;;;6213588;22;20031;-72
2022/06/01 15:40:54;;;;;;;6.18;3.10;;;17.00;68.70;;;;;;6247933;22;20089;-69
2022/06/01 15:43:21;;;;;;;3.65;2.72;;;16.70;69.00;;;;;;6223040;22;20059;-70
2022/06/01 15:46:38;;;;;;;5.72;3.30;;;16.60;69.00;;;;;;6224424;22;20081;-75
2022/06/01 15:49:11;;;;;;;7.05;2.30;;;16.60;69.80;;;;;;6250168;22;20012;-82
2022/06/01 15:51:41;;;;;;;3.00;2.20;;;17.00;67.00;;;;;;6200099;22;20015;-77
2022/06/01 15:54:07;;;;;;;4.15;2.17;;;17.40;66.80;;;;;;6224246;22;20049;-77
2022/06/01 15:57:10;;;;;;;5.82;2.75;;;17.10;64.30;;;;;;6250281;22;20011;-77
2022/06/01 16:00:27;;;;;;;7.30;3.25;;;17.10;64.70;;;;;;6223671;22;20323;-76
2022/06/01 16:03:16;;;;;;;3.55;2.47;;;17.80;64.70;;;;;;6222072;22;20105;-78
2022/06/01 16:06:15;;;;;;;5.32;2.42;;;18.30;61.70;;;;;;6275315;22;20016;-77
2022/06/01 16:09:26;;;;;;;4.93;2.17;;;18.80;59.50;;;;;;6224978;22;20488;-74
2022/06/01 16:11:52;;;;;;;4.15;2.35;;;19.10;59.60;;;;;;6243356;22;20026;-76
2022/06/01 16:14:18;;;;;;;3.08;1.55;;;19.40;60.40;;;;;;6224676;22;20020;-76
2022/06/01 16:17:29;;;;;;;2.67;1.50;;;19.70;58.90;;;;;;6224585;22;20015;-77
2022/06/01 16:20:06;;;;;;;3.55;1.85;;;19.90;55.10;;;;;;6160680;22;20015;-77
2022/06/01 16:22:44;;;;;;;;;;;20.50;53.90;;;;;;6225008;22;20043;-75
2022/06/01 16:32:43;;;;;;;2.67;1.45;;;20.70;53.90;;;;;;6142030;23;20485;-80
2022/06/01 16:35:17;;;;;;;2.63;2.08;;;20.70;54.00;;;;;;6162877;23;20140;-80
2022/06/01 16:37:43;;;;;;;3.08;1.58;;;20.80;52.50;;;;;;6188756;23;20012;-80
2022/06/01 16:40:11;;;;;;;;;;;20.00;55.30;;;;;;6163360;23;20067;-79
2022/06/01 16:42:39;;;;;;;3.70;1.80;;;19.50;55.40;;;;;;6163024;23;19990;-79
2022/06/01 16:48:34;;;;;;;3.05;1.90;;;18.80;57.70;;;;;;6199411;23;20047;-70
2022/06/01 16:51:08;;;;;;;4.57;1.60;;;18.60;57.60;;;;;;6187880;23;20012;-76
2022/06/01 16:53:34;;;;;;;3.58;1.67;;;18.90;57.00;;;;;;6187731;23;20372;-73
2022/06/01 16:56:00;;;;;;;2.38;1.60;;;19.00;57.70;;;;;;6187060;23;20051;-74
2022/06/01 16:58:26;;;;;;;;;;;19.00;58.20;;;;;;6187988;23;20024;-72
2022/06/01 17:00:52;;;;;;;1.65;1.30;;;18.30;58.90;;;;;;6166408;22;19916;-71
2022/06/01 17:03:17;;;;;;;;;;;18.00;60.10;;;;;;6195081;23;20103;-72
2022/06/01 17:05:43;;;;;;;3.65;1.77;;;17.50;62.10;;;;;;6195657;23;20065;-73
2022/06/01 17:08:09;;;;;;;3.45;1.92;;;16.90;62.50;;;;;;6221038;23;20074;-71
2022/06/01 17:10:35;;;;;;;4.63;2.50;;;16.40;64.20;;;;;;6195210;23;20012;-73
2022/06/01 17:13:01;;;;;;;;;;;16.10;65.20;;;;;;6221041;23;20059;-73
2022/06/01 17:15:28;;;;;;;5.00;3.10;;;15.80;66.40;;;;;;6195883;23;19915;-72
2022/06/01 17:17:59;;;;;;;3.75;2.83;;;15.70;66.10;;;;;;6195552;23;20020;-71
2022/06/01 17:20:25;;;;;;;6.20;3.67;;;15.40;67.20;;;;;;6195537;23;20378;-72
2022/06/01 17:22:51;;;;;;;4.47;3.53;;;15.30;67.40;;;;;;6195398;23;20020;-71
2022/06/01 17:25:19;;;;;;;4.32;2.58;;;15.20;69.50;;;;;;6195471;23;20008;-72
2022/06/01 17:27:45;;;;;;;6.47;3.53;;;15.00;69.00;;;;;;6220667;23;20020;-72
2022/06/01 17:30:12;;;;;;;6.15;3.58;;;15.00;69.90;;;;;;6227335;23;20489;-71
2022/06/01 17:32:40;;;;;;;5.55;3.15;;;15.00;69.30;;;;;;6220381;23;20440;-72
2022/06/01 17:35:14;;;;;;;3.97;3.08;;;14.80;70.50;;;;;;6220584;23;20020;-73
2022/06/01 17:37:40;;;;;;;4.40;2.92;;;14.80;71.20;;;;;;6220499;23;20017;-73
2022/06/01 17:40:07;;;;;;;4.78;3.60;;;14.80;70.10;;;;;;6219868;23;20027;-73
2022/06/01 17:42:36;;;;;;;6.43;4.20;;;14.70;70.20;;;;;;6219990;23;20403;-71
2022/06/01 17:45:05;;;;;;;4.65;3.30;;;14.70;71.30;;;;;;6245371;23;20020;-76
2022/06/01 17:47:32;;;;;;;6.05;3.58;;;14.60;71.50;;;;;;6245282;23;20008;-71
2022/06/01 17:49:57;;;;;;;6.38;3.80;;;14.50;71.50;;;;;;6220083;23;20016;-76
2022/06/01 17:52:23;;;;;;;4.90;4.05;;;14.50;71.60;;;;;;6219931;23;20031;-72
2022/06/01 17:54:49;;;;;;;5.72;3.58;;;14.40;72.00;;;;;;6219986;23;20469;-71
2022/06/01 17:57:20;;;;;;;8.48;4.15;;;14.30;71.80;;;;;;6219900;23;20016;-73
2022/06/01 17:59:48;;;;;;;5.20;3.95;;;14.30;72.30;;;;;;6245234;23;20012;-73
2022/06/01 18:02:15;;;;;;;3.78;3.20;;;14.20;72.60;;;;;;6245133;22;20091;-76
2022/06/01 18:04:41;;;;;;;4.82;3.97;;;14.10;72.40;;;;;;6245156;23;20019;-74
2022/06/01 18:07:07;;;;;;;;;;;14.00;73.10;;;;;;6245863;23;20012;-71
2022/06/01 18:09:36;;;;;;;7.60;4.45;;;14.00;75.50;;;;;;6245702;23;19916;-72
2022/06/01 18:12:02;;;;;;;7.57;3.92;;;14.00;75.80;;;;;;6245381;22;20016;-73
2022/06/01 18:14:27;;;;;;;5.75;4.70;;;13.90;74.50;;;;;;6245188;23;20510;-73
2022/06/01 18:16:53;;;;;;;6.75;4.60;;;13.80;75.80;;;;;;6220117;23;20012;-73
2022/06/01 18:19:24;;;;;;;8.73;5.47;;;13.80;75.20;;;;;;6220075;23;20020;-71
2022/06/01 18:21:50;;;;;;;5.90;5.30;;;13.70;75.40;;;;;;6244917;22;20019;-72
2022/06/01 18:24:16;;;;;;;7.43;5.00;;;13.80;75.60;;;;;;6244987;23;20023;-73
2022/06/01 18:26:42;;;;;;;;;;;13.70;75.50;;;;;;6245615;23;20008;-74
2022/06/01 18:29:09;;;;;;;9.60;5.78;;;13.60;76.50;;;;;;6245157;23;19990;-73
2022/06/01 18:31:35;;;;;;;7.88;5.18;;;13.60;75.80;;;;;;6219335;23;20023;-73
2022/06/01 18:34:02;;;;;;;7.53;4.82;;;13.60;76.80;;;;;;6244757;23;20324;-70
2022/06/01 18:36:28;;;;;;;5.82;4.30;;;13.50;76.00;;;;;;6219514;23;20051;-74
2022/06/01 18:38:55;;;;;;;;;;;13.40;76.80;;;;;;6220342;23;20016;-74
2022/06/01 18:41:22;;;;;;;6.32;4.32;;;13.40;77.50;;;;;;6244958;22;20359;-72
2022/06/01 18:43:49;;;;;;;9.88;4.80;;;13.30;77.10;;;;;;6219388;23;20066;-72
2022/06/01 18:46:16;;;;;;;5.97;4.40;;;13.30;77.10;;;;;;6219524;23;20048;-73
2022/06/01 18:48:46;;;;;;;5.93;4.32;;;13.20;78.00;;;;;;6219774;23;20052;-74
2022/06/01 18:51:24;;;;;;;6.68;4.93;;;13.20;77.60;;;;;;6244972;22;20438;-72
2022/06/01 18:53:50;;;;;;;8.63;4.63;;;13.10;78.20;;;;;;6219531;23;20011;-71
2022/06/01 18:56:17;;;;;;;;;;;13.20;78.70;;;;;;6220391;23;20074;-73
2022/06/01 18:58:43;;;;;;;7.70;5.65;;;13.20;78.70;;;;;;6219533;23;19911;-73
2022/06/01 19:03:53;;;;;;;10.15;5.72;;;13.10;78.30;;;;;;6245040;23;20339;-73
2022/06/01 19:06:19;;;;;;;7.57;5.75;;;13.00;79.20;;;;;;6244996;23;20016;-73
2022/06/01 19:08:47;;;;;;;8.95;5.95;;;13.00;79.70;;;;;;6244416;23;20019;-73
2022/06/01 19:11:17;;;;;;;7.65;5.70;;;12.90;80.10;;;;;;6240736;22;20081;-75
2022/06/01 19:13:43;;;;;;;8.02;5.47;;;12.80;79.40;;;;;;6218021;23;20024;-73
2022/06/01 19:16:38;;;;;;;7.20;5.20;;;12.80;79.30;;;;;;6218256;23;20074;-74
2022/06/01 19:19:32;;;;;;;9.68;5.97;;;12.80;81.10;;;;;;6243269;23;20016;-73
2022/06/01 19:22:01;;;;;;;7.43;5.57;;;12.70;81.50;;;;;;6238760;22;20386;-74
2022/06/01 19:24:27;;;;;;;10.20;4.93;;;12.70;80.30;;;;;;6218251;23;20016;-76
2022/06/01 19:26:55;;;;;;;10.63;5.55;;;12.60;80.70;;;;;;6218317;23;20012;-74
2022/06/01 19:29:33;;;;;;;6.25;4.60;;;12.60;81.20;;;;;;6244750;22;20012;-75
2022/06/01 19:32:01;;;;;;;6.40;5.00;;;12.50;81.80;;;;;;6218980;23;20024;-76
2022/06/01 19:34:27;;;;;;;6.72;5.00;;;12.50;81.20;;;;;;6219005;23;20051;-78
2022/06/01 19:45:46;;;;;;;9.70;6.00;;;12.30;82.50;;;;;;6243676;23;20407;-73
2022/06/01 19:48:15;;;;;;;9.38;5.93;;;12.40;82.60;;;;;;6243334;23;20012;-74
2022/06/01 19:50:42;;;;;;;11.60;6.72;;;12.30;82.60;;;;;;6217933;23;20438;-76
2022/06/01 19:53:10;;;;;;;7.57;6.10;;;12.30;82.60;;;;;;6218106;23;20012;-74
2022/06/01 19:55:36;;;;;;;7.88;5.97;;;12.20;82.50;;;;;;6218638;23;20090;-75
2022/06/01 19:58:02;;;;;;;9.65;6.72;;;12.20;83.40;;;;;;6218200;23;20012;-71
2022/06/01 20:00:28;;;;;;;10.15;7.68;;;12.10;83.60;;;;;;6218147;23;20022;-73
2022/06/01 20:02:54;;;;;;;8.95;7.25;;;12.00;85.30;;;;;;6218247;23;20023;-72
2022/06/01 20:05:20;;;;;;;11.50;7.78;;;12.00;84.10;;;;;;6193588;23;20388;-72
2022/06/01 20:07:47;;;;;;;10.07;7.97;;;11.90;84.30;;;;;;6244116;23;20069;-69
2022/06/01 20:10:17;;;;;;;9.32;7.70;;;11.90;84.50;;;;;;6218398;23;20016;-73
2022/06/01 20:15:27;;;;;;;12.75;8.10;;;11.80;85.10;;;;;;6243479;23;20078;-73
2022/06/01 20:17:53;;;;;;;10.90;7.30;;;11.70;85.20;;;;;;6218428;23;20016;-73
2022/06/01 20:20:19;;;;;;;10.40;7.45;;;11.70;85.10;;;;;;6243215;23;20058;-73
2022/06/01 20:22:54;;;;;;;11.23;7.65;;;11.60;85.40;;;;;;6243224;22;20066;-73
2022/06/01 20:25:22;;;;;;;9.48;7.55;;;11.50;85.40;;;;;;6218449;23;20012;-72
2022/06/01 20:27:48;;;;;;;9.73;7.18;;;11.60;85.60;;;;;;6243831;23;20020;-74
2022/06/01 20:30:14;;;;;;;9.48;7.28;;;11.50;85.80;;;;;;6223251;22;20031;-71
2022/06/01 20:32:39;;;;;;;;;;;11.40;85.60;;;;;;6251166;22;20022;-73
2022/06/01 20:35:07;;;;;;;12.32;7.53;;;11.40;88.10;;;;;;6250211;22;20334;-73
2022/06/01 21:15:24;;;;;;;8.95;6.78;;;10.80;88.40;;;;;;5788690;24;20030;-79
2022/06/01 21:17:49;;;;;;;11.32;7.30;;;10.70;87.80;;;;;;5857630;24;20009;-72
2022/06/01 21:20:15;;;;;;;11.18;7.30;;;10.70;88.10;;;;;;6022799;23;20478;-75
2022/06/01 21:22:41;;;;;;;11.15;7.93;;;10.60;87.60;;;;;;6162894;23;20013;-71
2022/06/01 21:25:12;;;;;;;11.15;8.70;;;10.80;88.70;;;;;;6188651;23;20020;-72
2022/06/01 21:27:38;;;;;;;8.95;7.13;;;10.50;88.90;;;;;;6188578;23;20013;-72
2022/06/01 21:30:08;;;;;;;10.18;8.00;;;10.50;88.80;;;;;;6188348;23;20084;-72
2022/06/01 21:37:30;;;;;;;11.90;7.97;;;10.50;90.10;;;;;;6153105;23;20023;-75
2022/06/01 21:39:56;;;;;;;11.30;8.15;;;10.40;90.20;;;;;;6141265;23;20243;-73
2022/06/01 21:42:21;;;;;;;9.33;8.20;;;10.40;89.80;;;;;;6163167;23;20148;-74
2022/06/01 21:44:47;;;;;;;10.90;8.02;;;10.30;90.00;;;;;;6163202;23;20017;-73
2022/06/01 21:47:14;;;;;;;11.07;9.35;;;10.30;90.10;;;;;;6163394;23;20009;-73
